Fredonia, NY (14063)

4:00 AM EDT on March 24, 2017 (GMT -0400)
East Main Street | | Change Station

Elev 738 ft 42.44 °N, 79.33 °W | Updated 3 minutes ago

Mostly Cloudy
Mostly Cloudy
40.5 °F
Feels Like 38 °F
N
3.7
Wind Variable Wind from North
Gusts 8.1 mph

Today
High -- | Low -- °F
--% Chance of Precip.
Yesterday
High -- | Low -- °F
Precip. -- in
Pressure 30.16 in
Visibility 10.0 miles
Clouds Mostly Cloudy 6500 ft
Overcast 8000 ft
Windchill 38 °F
Dew Point 17 °F
Humidity 39%
Rainfall Not available.
Snow Depth Not available.
7:13 AM 7:34 PM
Waning Crescent, 17% visible
METAR KDKK 240753Z AUTO 17020G27KT 10SM BKN065 OVC080 06/M09 A3014 RMK AO2 PK WND 17027/0753 RAB40E52 SLP212 P0000 T00561094
Pressure 30.16 in
Visibility 10.0 miles
Clouds Mostly Cloudy 6500 ft
Overcast 8000 ft
Windchill 38 °F
Dew Point 17 °F
Humidity 39%
Rainfall Not available.
Snow Depth Not available.
7:13 AM 7:34 PM
Waning Crescent, 17% visible
METAR KDKK 240753Z AUTO 17020G27KT 10SM BKN065 OVC080 06/M09 A3014 RMK AO2 PK WND 17027/0753 RAB40E52 SLP212 P0000 T00561094

Get Severe Weather Alerts

Thanks for signing up!

Be on the lookout for a verification email in your inbox.

You'll start receiving the daily forecast at 8 AM.

×

10-Day Weather Forecast

Almanac

Astronomy

Mar. 24, 2017 Rise Set
Actual Time
Civil Twilight
Nautical Twilight
Astronomical Twilight
Moon
Length of Visible Light
Length of Day
Tomorrow will be .
, % of the Moon is Illuminated

Today's Extremes

State Highs State Lows

Community

WunderPhotos

Upload Photos

1,962,540 photos uploaded!

WunderBlog® & News

Nearby

Air Quality

  Air Quality AQ Index Pollutant
Not available.

Snow Depth

Station Depth Elevation

Earthquake Activity

City Distance Mag. Time & Date
Minimum magnitude displayed is 2.5.

Earthquake Activity

City Distance Mag. Time & Date
Minimum magnitude displayed is 2.5.

Coastal Water Temperatures

Place Temperature

Stations

Nearby Weather Stations

Station Location Temp. Windchill Dew Point Humidity Wind Precip. Elev Updated Type
                   

Watches & Warnings

There are currently no watches in effect.